METAR Data
IDs: Format: Raw Decoded Include TAF

Data at: 0850 UTC 18 Nov 2018

PAWS 180756Z AUTO 07006KT 10SM OVC080 03/M02 A2957 RMK AO2 SLP028 T00331017
PAWS 180656Z AUTO 00000KT 10SM OVC075 03/M02 A2958 RMK AO2 RAE17 SLP033 P0000 T00331017
PAWS 180456Z AUTO VRB03KT 10SM -RA OVC065 04/M02 A2958 RMK AO2 SLP033 P0000 T00391017
PAWS 180356Z AUTO 04004KT 10SM -RA FEW050 OVC075 02/M01 A2957 RMK AO2 RAB15 SLP029 P0000 T00171006 FZRANO
PAWS 180156Z AUTO 07004KT 10SM OVC070 04/M03 A2957 RMK AO2 RAE10 SLP028 P0000 T00441028
PAWS 180056Z AUTO 00000KT 10SM -RA OVC060 01/M01 A2958 RMK AO2 RAB37 SLP032 P0000 T00111011 FZRANO
PAWS 172356Z AUTO 00000KT 10SM OVC075 01/M02 A2959 RMK AO2 SLP034 60000 T00111017 10039 21017 58003 FZRANO
PAWS 172256Z AUTO 00000KT 10SM OVC070 01/M02 A2961 RMK AO2 SLP041 T00111017 FZRANO
PAWS 172156Z AUTO 00000KT 10SM OVC060 01/M02 A2961 RMK AO2 SLP044 T00111017 FZRANO
PAWS 172056Z AUTO 07003KT 10SM OVC060 04/M03 A2960 RMK AO2 SLP038 60000 T00391033 55003
PAWS 171956Z AUTO 00000KT 10SM BKN065 01/M03 A2960 RMK AO2 SLP038 T00111033 FZRANO
PAWS 171856Z AUTO 24004KT 10SM BKN070 OVC120 M01/M03 A2961 RMK AO2 UPE08 SLP042 P0000 T10111028 FZRANO
PAWS 171756Z AUTO 00000KT 10SM UP OVC070 M01/M03 A2961 RMK AO2 UPB53 SLP043 P0000 60000 T10111028 10011 21022 56010 FZRANO
PAWS 171656Z AUTO 00000KT 10SM OVC090 M01/M03 A2962 RMK AO2 SLP043 T10111033 FZRANO
PAWS 171556Z AUTO 07004KT 10SM OVC095 00/M04 A2962 RMK AO2 SLP045 T00001039 FZRANO
PAWS 171456Z AUTO 00000KT 10SM SCT070 OVC110 M01/M04 A2964 RMK AO2 SLP052 T10111039 56019 FZRANO
PAWS 171356Z AUTO 36004KT 10SM BKN075 OVC095 M01/M05 A2966 RMK AO2 SLP058 T10061050 FZRANO
PAWS 171256Z AUTO 00000KT 10SM BKN095 BKN110 M02/M04 A2968 RMK AO2 SLP067 T10221039 FZRANO
PAWS 171156Z AUTO 00000KT 10SM BKN070 OVC090 M02/M04 A2970 RMK AO2 SLP072 T10171044 10017 21022 56019 FZRANO
PAWS 171056Z AUTO 00000KT 10SM BKN080 01/M07 A2971 RMK AO2 SLP076 T00061072 FZRANO
PAWS 170856Z AUTO 04005KT 10SM CLR 01/M08 A2976 RMK AO2 SLP091 T00061083 400171089 56027 FZRANO
PAWS 170756Z AUTO 06003KT 10SM OVC085 01/M08 A2977 RMK AO2 SLP098 T00111078 FZRANO
PAWS 170656Z AUTO 07006KT 10SM OVC080 01/M08 A2981 RMK AO2 SLP109 T00111078 FZRANO
PAWS 170556Z AUTO VRB05KT 10SM OVC085 02/M09 A2984 RMK AO2 SLP119 T00171089 10017 21028 56023 FZRANO
PAWS 170456Z AUTO 07004KT 10SM OVC090 01/M09 A2985 RMK AO2 SLP124 T00111089 FZRANO
PAWS 162356Z AUTO VRB03KT 10SM OVC070 M02/M04 A3001 RMK AO2 SLP177 60000 T10221044 10006 21033 56024 FZRANO
PAWS 162256Z AUTO 00000KT 10SM OVC070 M03/M05 A3003 RMK AO2 SLP187 T10281050 FZRANO
PAWS 162156Z AUTO 00000KT 10SM OVC075 M03/M05 A3005 RMK AO2 SLP194 T10331050 FZRANO
PAWS 162056Z AUTO 24004KT 10SM OVC065 M03/M06 A3008 RMK AO2 SLP203 60000 T10281056 57008 FZRANO